Time;durP1;ratioP1;P1;durP2;ratioP2;P2;SDS_P1;SDS_P2;PMS_P1;PMS_P2;Temp;Humidity;BMP_temperature;BMP_pressure;BME280_temperature;BME280_humidity;BME280_pressure;Samples;Min_cycle;Max_cycle;Signal;HPM_P1;HPM_P2
2022/05/19 00:00:01;;;;;;;16.80;7.95;;;;;;;4.89;93.87;100727.94;4969766;28;20050;-87
2022/05/19 00:03:00;;;;;;;21.67;9.85;;;;;;;4.90;91.47;100724.47;4987473;28;20477;-88
2022/05/19 00:05:46;;;;;;;18.85;8.38;;;;;;;4.86;93.44;100717.50;4972800;28;20035;-89
2022/05/19 00:08:31;;;;;;;14.13;7.40;;;;;;;4.85;92.62;100726.16;4987772;28;20485;-87
2022/05/19 00:11:23;;;;;;;22.60;8.23;;;;;;;4.69;96.03;100725.09;5015078;28;20046;-89
2022/05/19 00:14:08;;;;;;;18.80;7.70;;;;;;;4.66;96.12;100712.94;4997168;28;20042;-88
2022/05/19 00:16:56;;;;;;;23.48;8.23;;;;;;;4.73;96.68;100719.06;4984275;28;20038;-88
2022/05/19 00:19:41;;;;;;;14.48;6.32;;;;;;;4.76;98.75;100721.72;5005632;28;20030;-88
2022/05/19 00:22:25;;;;;;;13.68;6.75;;;;;;;4.63;98.31;100712.03;4982167;28;20084;-89
2022/05/19 00:25:09;;;;;;;14.40;6.32;;;;;;;4.50;100.00;100704.91;4985622;28;20048;-89
2022/05/19 00:27:53;;;;;;;16.23;6.22;;;;;;;4.58;100.00;100713.66;4977736;28;20049;-87
2022/05/19 00:30:38;;;;;;;12.55;6.90;;;;;;;4.46;100.00;100706.59;4993385;28;20047;-87
2022/05/19 00:33:22;;;;;;;14.10;5.97;;;;;;;4.48;100.00;100719.59;4987346;28;20060;-88
2022/05/19 00:36:15;;;;;;;10.50;5.68;;;;;;;4.48;100.00;100696.22;4981375;28;20056;-88
2022/05/19 00:39:00;;;;;;;;;;;;;;;4.57;100.00;100705.00;4985602;28;20046;-87
2022/05/19 00:41:45;;;;;;;11.05;5.35;;;;;;;4.48;100.00;100706.59;4986456;28;20273;-88
2022/05/19 00:44:30;;;;;;;9.07;5.05;;;;;;;4.41;100.00;100718.63;4988210;28;20053;-88
2022/05/19 00:47:23;;;;;;;11.93;5.63;;;;;;;4.40;100.00;100697.00;4973355;28;20038;-90
2022/05/19 00:50:16;;;;;;;9.88;4.47;;;;;;;4.47;100.00;100716.13;4972785;28;20705;-88
2022/05/19 00:53:13;;;;;;;10.70;5.18;;;;;;;4.43;99.91;100710.03;4975669;28;20042;-88
2022/05/19 00:56:03;;;;;;;13.82;4.15;;;;;;;4.39;100.00;100710.84;4982437;28;20044;-88
2022/05/19 00:59:04;;;;;;;9.18;4.75;;;;;;;4.34;100.00;100711.59;4974589;28;20038;-88
2022/05/19 01:01:48;;;;;;;10.55;4.43;;;;;;;4.30;100.00;100702.91;4985668;28;20046;-89
2022/05/19 01:04:45;;;;;;;10.70;4.70;;;;;;;4.40;100.00;100714.28;4993026;28;20042;-89
2022/05/19 01:07:37;;;;;;;11.05;4.93;;;;;;;4.33;100.00;100702.09;5002558;28;20045;-88
2022/05/19 01:10:21;;;;;;;8.00;4.05;;;;;;;4.31;100.00;100696.00;4987098;28;20045;-88
2022/05/19 01:13:08;;;;;;;8.35;3.95;;;;;;;4.43;100.00;100707.44;4985696;28;20095;-89
2022/05/19 01:15:52;;;;;;;8.57;3.88;;;;;;;4.37;100.00;100696.09;4976149;28;20034;-89
2022/05/19 01:18:41;;;;;;;11.90;4.45;;;;;;;4.36;100.00;100704.72;4974418;28;20038;-88
2022/05/19 01:21:28;;;;;;;6.43;3.58;;;;;;;4.27;100.00;100689.91;4984479;28;20058;-88
2022/05/19 01:24:25;;;;;;;8.40;3.97;;;;;;;4.33;100.00;100699.50;5004405;28;20075;-88
2022/05/19 01:27:09;;;;;;;9.80;4.00;;;;;;;4.20;100.00;100691.53;4977407;28;20041;-88
2022/05/19 01:29:54;;;;;;;9.52;3.90;;;;;;;4.26;100.00;100702.81;4987233;28;20049;-88
2022/05/19 01:32:39;;;;;;;9.90;5.20;;;;;;;4.15;100.00;100697.50;4984849;28;20048;-89
2022/05/19 01:35:24;;;;;;;13.15;5.25;;;;;;;4.06;100.00;100685.25;4986677;28;20037;-88
2022/05/19 01:38:16;;;;;;;10.05;4.22;;;;;;;4.02;100.00;100686.06;4976397;28;20042;-89
2022/05/19 01:41:21;;;;;;;12.43;5.03;;;;;;;3.96;100.00;100688.56;4974357;28;20093;-88
2022/05/19 01:44:42;;;;;;;9.32;4.28;;;;;;;3.82;100.00;100700.44;4986944;28;20393;-88
2022/05/19 01:47:38;;;;;;;11.55;5.03;;;;;;;3.85;100.00;100701.34;4972112;28;20034;-88
2022/05/19 01:50:38;;;;;;;11.98;4.57;;;;;;;3.85;100.00;100703.94;5019709;28;20046;-88
2022/05/19 01:53:33;;;;;;;10.32;4.75;;;;;;;3.81;100.00;100688.31;4988858;28;20096;-89
2022/05/19 01:56:29;;;;;;;8.50;4.25;;;;;;;3.85;100.00;100697.88;4986722;28;20043;-88
2022/05/19 01:59:33;;;;;;;10.90;4.03;;;;;;;3.80;100.00;100696.94;4974146;28;20039;-88
2022/05/19 02:02:29;;;;;;;9.18;3.50;;;;;;;3.70;100.00;100690.72;4983447;28;20093;-88
2022/05/19 02:05:34;;;;;;;9.93;4.85;;;;;;;3.75;100.00;100694.28;4987583;28;20038;-88
2022/05/19 02:08:27;;;;;;;8.57;4.25;;;;;;;3.71;100.00;100693.34;4977352;28;20058;-88
2022/05/19 02:11:17;;;;;;;8.27;3.97;;;;;;;3.70;100.00;100682.94;4998483;28;20042;-88
2022/05/19 02:14:07;;;;;;;10.77;4.18;;;;;;;3.73;100.00;100685.59;4982498;28;20983;-88
2022/05/19 02:16:52;;;;;;;7.47;3.97;;;;;;;3.71;100.00;100682.13;4985119;28;20047;-87
2022/05/19 02:19:40;;;;;;;11.75;4.25;;;;;;;3.79;100.00;100685.69;4972816;28;20061;-88
2022/05/19 02:22:33;;;;;;;9.63;3.72;;;;;;;3.78;100.00;100691.72;4986790;28;20039;-88
2022/05/19 02:25:29;;;;;;;9.02;4.28;;;;;;;3.78;100.00;100696.06;4977146;28;20516;-88
2022/05/19 02:28:20;;;;;;;11.43;4.55;;;;;;;3.74;100.00;100696.00;4982769;28;20711;-88
2022/05/19 02:31:04;;;;;;;10.23;5.20;;;;;;;3.72;100.00;100694.22;4987964;28;20053;-88
2022/05/19 02:33:49;;;;;;;10.43;4.53;;;;;;;3.67;100.00;100694.16;4990227;28;20035;-89
2022/05/19 02:36:33;;;;;;;9.60;4.07;;;;;;;3.62;100.00;100693.19;4983589;28;20120;-88
2022/05/19 02:39:17;;;;;;;9.52;3.85;;;;;;;3.61;100.00;100694.06;4990387;28;20034;-88
2022/05/19 02:42:01;;;;;;;7.60;3.35;;;;;;;3.62;100.00;100693.19;4988372;28;20069;-88
2022/05/19 02:44:46;;;;;;;5.65;3.53;;;;;;;3.63;100.00;100696.66;4988186;28;20037;-88
2022/05/19 02:47:30;;;;;;;7.22;3.25;;;;;;;3.59;100.00;100698.31;4987675;28;20065;-88
2022/05/19 02:50:16;;;;;;;8.32;3.85;;;;;;;3.60;100.00;100696.59;4985715;28;20049;-88
2022/05/19 02:53:00;;;;;;;7.47;3.90;;;;;;;3.53;100.00;100680.06;4979833;28;20034;-88
2022/05/19 02:55:46;;;;;;;6.57;3.55;;;;;;;3.67;100.00;100677.72;4979595;28;20478;-87
2022/05/19 02:58:31;;;;;;;11.48;3.95;;;;;;;3.63;100.00;100675.91;4986681;28;20088;-88
2022/05/19 03:01:16;;;;;;;7.78;3.80;;;;;;;3.62;100.00;100674.19;4985012;28;20049;-88
2022/05/19 03:04:00;;;;;;;8.15;3.72;;;;;;;3.71;100.00;100676.94;4986231;28;20042;-88
2022/05/19 03:06:44;;;;;;;7.03;3.60;;;;;;;3.72;100.00;100676.09;4970487;28;20041;-87
2022/05/19 03:09:29;;;;;;;7.30;3.15;;;;;;;3.70;100.00;100673.44;4984575;28;20046;-88
2022/05/19 03:12:13;;;;;;;7.28;3.58;;;;;;;3.72;100.00;100676.94;4972199;28;20401;-89
2022/05/19 03:14:57;;;;;;;8.77;3.72;;;;;;;3.79;100.00;100675.31;4984985;28;20034;-87
2022/05/19 03:17:43;;;;;;;7.88;3.28;;;;;;;3.89;100.00;100674.63;4981039;28;20088;-88
2022/05/19 03:20:27;;;;;;;5.10;3.05;;;;;;;3.86;100.00;100671.97;4970885;28;20061;-87
2022/05/19 03:23:11;;;;;;;7.22;3.30;;;;;;;3.90;100.00;100666.03;4971282;28;20390;-88
2022/05/19 03:25:56;;;;;;;6.00;3.00;;;;;;;3.84;100.00;100657.28;4981307;28;20062;-88
2022/05/19 03:28:41;;;;;;;7.43;3.67;;;;;;;3.97;100.00;100664.41;4983047;28;20046;-88
2022/05/19 03:31:25;;;;;;;7.60;4.07;;;;;;;4.02;100.00;100670.50;4985503;28;20417;-88
2022/05/19 03:34:09;;;;;;;6.60;3.28;;;;;;;4.14;100.00;100657.72;4987730;28;20408;-88
2022/05/19 03:36:54;;;;;;;9.05;3.33;;;;;;;4.35;100.00;100675.31;4980119;28;20184;-87
2022/05/19 03:39:39;;;;;;;5.35;2.83;;;;;;;4.43;100.00;100665.06;4988205;28;20042;-88
2022/05/19 03:42:24;;;;;;;8.13;3.28;;;;;;;4.43;100.00;100659.88;4965688;28;20034;-87
2022/05/19 03:45:09;;;;;;;10.07;3.85;;;;;;;4.43;100.00;100665.06;4985650;28;20104;-88
2022/05/19 03:47:53;;;;;;;7.82;3.53;;;;;;;4.49;100.00;100661.69;4984296;28;20046;-88
2022/05/19 03:50:43;;;;;;;7.60;3.50;;;;;;;4.55;100.00;100654.84;4982565;28;20049;-88
2022/05/19 03:53:28;;;;;;;6.47;3.08;;;;;;;4.64;100.00;100660.13;4985167;28;20803;-88
2022/05/19 03:56:12;;;;;;;7.95;3.15;;;;;;;4.72;100.00;100670.63;4983239;28;20386;-88
2022/05/19 03:58:57;;;;;;;6.78;3.60;;;;;;;4.88;100.00;100667.34;4982322;28;20053;-88
2022/05/19 04:01:42;;;;;;;6.13;3.03;;;;;;;5.11;100.00;100671.94;4995970;28;20049;-87
2022/05/19 04:04:26;;;;;;;11.65;3.80;;;;;;;5.52;100.00;100666.25;4989525;28;20398;-88
2022/05/19 04:07:11;;;;;;;6.82;3.60;;;;;;;6.06;100.00;100667.59;5009526;28;20041;-88
2022/05/19 04:09:56;;;;;;;9.75;3.50;;;;;;;6.53;100.00;100654.00;4982401;28;21021;-88
2022/05/19 04:12:43;;;;;;;9.88;3.58;;;;;;;7.09;92.12;100657.69;4969988;28;20473;-87
2022/05/19 04:15:27;;;;;;;9.32;3.67;;;;;;;7.47;91.51;100650.81;4975848;28;20047;-88
2022/05/19 04:18:12;;;;;;;6.28;3.45;;;;;;;7.88;88.39;100660.38;4984036;28;20113;-87
2022/05/19 04:20:56;;;;;;;8.18;3.88;;;;;;;8.40;85.03;100660.31;4982443;28;20038;-88
2022/05/19 04:23:41;;;;;;;7.57;3.38;;;;;;;9.23;76.79;100649.53;4983518;28;20034;-87
2022/05/19 04:26:25;;;;;;;9.82;3.70;;;;;;;9.46;72.79;100658.97;4971977;28;20109;-87
2022/05/19 04:29:10;;;;;;;10.90;3.47;;;;;;;10.03;67.44;100649.75;4980544;28;20078;-88
2022/05/19 04:31:54;;;;;;;7.28;4.30;;;;;;;10.54;65.66;100654.50;4986342;28;20043;-88
2022/05/19 04:34:38;;;;;;;8.13;4.68;;;;;;;10.86;63.41;100656.72;4986185;28;20038;-88
2022/05/19 04:37:22;;;;;;;8.48;4.63;;;;;;;11.27;62.51;100657.91;4983425;28;20054;-87
2022/05/19 04:40:10;;;;;;;8.55;4.20;;;;;;;11.78;58.74;100650.13;4972153;28;20512;-89
2022/05/19 04:42:54;;;;;;;7.80;4.50;;;;;;;11.79;60.89;100645.72;4983744;28;20034;-89
2022/05/19 04:45:39;;;;;;;9.40;4.93;;;;;;;12.01;58.39;100649.75;4980563;28;20042;-88
2022/05/19 04:48:24;;;;;;;11.07;5.05;;;;;;;12.89;56.21;100651.56;4969937;28;20494;-87
2022/05/19 04:51:09;;;;;;;7.43;3.78;;;;;;;12.43;56.76;100641.97;4986404;28;20039;-88
2022/05/19 04:53:54;;;;;;;7.35;3.90;;;;;;;13.14;54.62;100649.25;4997236;28;20098;-88
2022/05/19 04:56:42;;;;;;;8.32;3.72;;;;;;;12.97;60.92;100652.28;4996813;28;20054;-89
2022/05/19 04:59:27;;;;;;;7.65;3.88;;;;;;;13.06;59.12;100652.06;4983965;28;20061;-88
2022/05/19 05:02:11;;;;;;;10.05;4.05;;;;;;;13.21;56.57;100653.47;5002172;28;20050;-87
2022/05/19 05:04:58;;;;;;;6.65;3.47;;;;;;;13.71;56.78;100640.91;4969155;28;20053;-89
2022/05/19 05:07:43;;;;;;;5.82;3.70;;;;;;;13.87;55.31;100643.16;4988130;28;20045;-88
2022/05/19 05:10:27;;;;;;;7.90;3.50;;;;;;;14.32;54.22;100649.00;4976994;28;20041;-88
2022/05/19 05:13:14;;;;;;;7.90;3.55;;;;;;;14.31;54.69;100643.78;4986428;28;20046;-88
2022/05/19 05:15:59;;;;;;;4.57;2.90;;;;;;;14.85;54.14;100646.69;4989872;28;20042;-88
2022/05/19 05:18:44;;;;;;;5.75;3.22;;;;;;;15.47;52.88;100642.13;4993872;28;20042;-88
2022/05/19 05:21:28;;;;;;;6.53;3.47;;;;;;;15.11;57.70;100648.53;4989065;28;20429;-88
2022/05/19 05:24:12;;;;;;;7.30;2.97;;;;;;;15.46;55.81;100640.41;4991446;28;20366;-88
2022/05/19 05:26:56;;;;;;;6.43;2.78;;;;;;;15.13;56.77;100651.09;4992888;28;20045;-88
2022/05/19 05:29:41;;;;;;;6.22;3.30;;;;;;;15.98;52.51;100644.84;4985370;28;20046;-89
2022/05/19 05:32:25;;;;;;;3.65;2.53;;;;;;;15.55;54.14;100645.41;5002709;28;20477;-89
2022/05/19 05:35:10;;;;;;;10.82;3.00;;;;;;;15.87;52.64;100647.88;4998647;28;20039;-88
2022/05/19 05:37:55;;;;;;;7.05;2.78;;;;;;;15.96;51.87;100638.78;4992894;28;20062;-89
2022/05/19 05:40:40;;;;;;;5.43;3.10;;;;;;;15.84;53.22;100641.84;4982495;28;20052;-89
2022/05/19 05:43:24;;;;;;;4.07;2.60;;;;;;;16.31;50.83;100640.19;4989299;28;20042;-88
2022/05/19 05:46:14;;;;;;;13.73;3.33;;;;;;;16.22;52.14;100637.03;4990664;28;20393;-88
2022/05/19 05:48:58;;;;;;;6.40;2.72;;;;;;;16.28;50.34;100642.06;4985294;28;20044;-88
2022/05/19 05:51:44;;;;;;;3.88;2.78;;;;;;;16.42;52.68;100642.44;4982986;28;20038;-89
2022/05/19 05:54:28;;;;;;;6.20;3.00;;;;;;;16.74;52.17;100646.56;4998246;28;20046;-89
2022/05/19 05:57:14;;;;;;;5.13;2.80;;;;;;;17.44;50.97;100655.38;5005295;28;20061;-88
2022/05/19 06:00:01;;;;;;;13.25;3.67;;;;;;;18.05;46.95;100644.06;4990457;28;20044;-89
2022/05/19 06:02:45;;;;;;;9.23;3.80;;;;;;;17.21;51.35;100649.19;4983438;28;20044;-88
2022/05/19 06:05:30;;;;;;;8.88;4.03;;;;;;;17.84;48.01;100645.81;4985611;28;20045;-89
2022/05/19 06:08:15;;;;;;;12.88;3.92;;;;;;;18.41;49.34;100652.19;4988293;28;20042;-88
2022/05/19 06:11:00;;;;;;;12.82;3.55;;;;;;;18.79;47.79;100653.19;5003343;28;20453;-88
2022/05/19 06:13:44;;;;;;;4.10;2.72;;;;;;;17.98;47.52;100649.63;5000390;28;20157;-89
2022/05/19 06:16:29;;;;;;;6.10;3.08;;;;;;;18.85;46.73;100652.91;4986895;28;20460;-89
2022/05/19 06:19:13;;;;;;;7.03;2.85;;;;;;;18.50;48.69;100662.41;4966207;28;20397;-89
2022/05/19 06:21:57;;;;;;;5.60;2.90;;;;;;;18.67;46.50;100651.91;4968030;28;20041;-88
2022/05/19 06:24:44;;;;;;;6.88;3.17;;;;;;;19.45;45.65;100646.53;4996508;28;20096;-91
2022/05/19 06:27:28;;;;;;;8.88;3.50;;;;;;;19.10;47.54;100660.56;4981193;28;20113;-89
2022/05/19 06:30:13;;;;;;;8.30;3.60;;;;;;;19.44;45.09;100655.47;4981674;28;20046;-89
2022/05/19 06:33:00;;;;;;;7.38;3.45;;;;;;;19.38;45.77;100653.94;4996709;28;20417;-88
2022/05/19 06:35:45;;;;;;;6.55;3.00;;;;;;;19.57;49.30;100657.44;4995388;28;20042;-88
2022/05/19 06:38:31;;;;;;;8.55;2.92;;;;;;;20.18;47.61;100652.66;4984749;28;20468;-89
2022/05/19 06:44:19;;;;;;;7.10;2.92;;;;;;;20.90;42.83;100644.41;4985779;28;20042;-88
2022/05/19 06:47:13;;;;;;;6.45;2.47;;;;;;;21.58;40.64;100635.28;4986527;28;20038;-89
2022/05/19 06:49:58;;;;;;;4.88;2.15;;;;;;;21.02;41.51;100633.06;4982197;28;20106;-88
2022/05/19 06:52:42;;;;;;;4.82;1.60;;;;;;;21.56;41.10;100646.06;5000501;28;20550;-88
2022/05/19 06:55:29;;;;;;;2.72;1.38;;;;;;;21.11;37.31;100646.81;4973672;28;20401;-88
2022/05/19 06:58:14;;;;;;;4.68;1.38;;;;;;;21.31;38.49;100641.22;4983957;28;20042;-90
2022/05/19 07:01:00;;;;;;;5.70;1.23;;;;;;;21.58;36.50;100637.97;4965163;28;20064;-89
2022/05/19 07:03:46;;;;;;;1.58;0.68;;;;;;;21.67;36.61;100642.75;4965722;28;20068;-88
2022/05/19 07:06:30;;;;;;;3.72;1.25;;;;;;;22.27;36.74;100631.25;4981386;28;20477;-89
2022/05/19 07:09:15;;;;;;;1.17;0.50;;;;;;;21.79;35.44;100636.72;4968383;28;20049;-89
2022/05/19 07:12:00;;;;;;;1.55;0.73;;;;;;;22.38;35.00;100631.44;4982070;28;20038;-89
2022/05/19 07:14:46;;;;;;;3.50;1.40;;;;;;;21.99;36.76;100632.03;4982270;28;20051;-88
2022/05/19 07:17:31;;;;;;;2.88;1.25;;;;;;;23.11;34.26;100626.00;4989931;28;20038;-89
2022/05/19 07:23:25;;;;;;;2.90;1.00;;;;;;;23.63;36.58;100621.75;4999723;28;20029;-89
2022/05/19 07:26:09;;;;;;;4.22;0.70;;;;;;;24.07;31.18;100620.56;4983077;28;20046;-89
2022/05/19 07:28:53;;;;;;;4.50;1.17;;;;;;;23.81;33.08;100623.19;4979748;28;20484;-90
2022/05/19 07:31:38;;;;;;;1.60;0.73;;;;;;;24.18;33.29;100616.22;4981787;28;20085;-89
2022/05/19 07:34:23;;;;;;;2.55;1.00;;;;;;;24.26;33.66;100619.19;4984242;28;20045;-89
2022/05/19 07:37:08;;;;;;;1.83;0.80;;;;;;;23.62;32.64;100617.34;4986489;28;20046;-88
2022/05/19 07:39:52;;;;;;;0.85;0.75;;;;;;;25.31;32.47;100626.03;5013683;28;20092;-89
2022/05/19 07:42:37;;;;;;;3.50;0.85;;;;;;;24.50;31.31;100626.50;4970523;28;20383;-89
2022/05/19 07:45:22;;;;;;;1.65;0.60;;;;;;;24.98;31.45;100620.44;4988276;28;20053;-89
2022/05/19 07:48:06;;;;;;;2.10;0.60;;;;;;;25.35;30.86;100626.69;4987298;28;20445;-88
2022/05/19 07:50:51;;;;;;;3.13;0.63;;;;;;;24.86;29.85;100623.06;4976024;28;20719;-89
2022/05/19 07:53:36;;;;;;;4.90;0.93;;;;;;;24.44;30.02;100618.94;4980449;28;20085;-89
2022/05/19 07:56:21;;;;;;;1.65;0.93;;;;;;;25.20;30.29;100628.66;4969440;28;20038;-89
2022/05/19 07:59:06;;;;;;;2.67;0.68;;;;;;;25.67;33.67;100615.34;4967774;28;20423;-89
2022/05/19 08:01:52;;;;;;;2.88;0.88;;;;;;;24.92;31.11;100622.59;4984932;28;20392;-89
2022/05/19 08:04:36;;;;;;;3.10;0.63;;;;;;;25.28;31.48;100620.91;4968518;28;20031;-90
2022/05/19 08:07:20;;;;;;;1.13;0.40;;;;;;;25.72;29.79;100616.72;4983797;28;20122;-89
2022/05/19 08:10:20;;;;;;;1.23;0.60;;;;;;;25.47;29.74;100620.41;4976368;28;20468;-88
2022/05/19 08:16:07;;;;;;;2.10;0.70;;;;;;;26.08;29.13;100618.44;4993584;28;20034;-89
2022/05/19 08:18:51;;;;;;;1.23;0.60;;;;;;;25.92;29.06;100615.25;4976595;28;20128;-88
2022/05/19 08:21:37;;;;;;;1.67;0.50;;;;;;;25.40;30.39;100621.81;4985980;28;20058;-88
2022/05/19 08:24:24;;;;;;;1.73;0.50;;;;;;;25.79;29.88;100622.47;4984779;28;20038;-89
2022/05/19 08:27:08;;;;;;;4.30;0.93;;;;;;;26.23;29.78;100629.84;4987663;28;20547;-89
2022/05/19 08:29:52;;;;;;;5.95;1.23;;;;;;;26.35;29.62;100633.38;4977353;28;20393;-90
2022/05/19 08:32:37;;;;;;;3.97;1.20;;;;;;;26.94;30.33;100630.53;4989152;28;20041;-90
2022/05/19 08:35:21;;;;;;;6.72;0.88;;;;;;;26.63;30.07;100628.56;4990829;28;20035;-89
2022/05/19 08:38:06;;;;;;;2.95;0.70;;;;;;;26.68;29.13;100629.03;4987987;28;20041;-89
2022/05/19 08:40:56;;;;;;;4.45;0.70;;;;;;;26.35;28.28;100628.00;4991085;28;20052;-90
2022/05/19 08:44:01;;;;;;;5.45;0.90;;;;;;;26.36;28.45;100624.38;4992246;28;20062;-89
2022/05/19 08:46:48;;;;;;;3.53;0.70;;;;;;;24.95;29.70;100627.72;5001030;28;20043;-88
2022/05/19 08:49:40;;;;;;;4.18;1.00;;;;;;;26.19;33.65;100616.75;4991337;28;20053;-89
2022/05/19 08:52:26;;;;;;;5.18;1.00;;;;;;;25.65;29.28;100618.16;4991561;28;20034;-89
2022/05/19 08:55:15;;;;;;;1.55;0.90;;;;;;;26.25;28.24;100619.81;4974860;28;20042;-89
2022/05/19 08:58:06;;;;;;;1.58;0.50;;;;;;;27.12;28.64;100614.72;4990573;28;20039;-89
2022/05/19 09:00:57;;;;;;;2.05;0.40;;;;;;;26.15;29.02;100616.16;4987308;28;20528;-89
2022/05/19 09:03:52;;;;;;;2.53;0.67;;;;;;;26.76;28.01;100605.13;4975142;28;20393;-88
2022/05/19 09:10:35;;;;;;;2.53;0.90;;;;;;;26.53;27.23;100607.81;4998401;28;20125;-89
2022/05/19 09:13:29;;;;;;;2.08;0.52;;;;;;;27.58;27.34;100596.63;4974053;28;20578;-88
2022/05/19 09:16:23;;;;;;;1.48;0.50;;;;;;;26.58;30.06;100599.38;4998982;28;20043;-88
2022/05/19 09:19:17;;;;;;;;;;;;;;;26.75;28.45;100595.38;4989916;28;20048;-89
2022/05/19 09:22:17;;;;;;;3.85;0.80;;;;;;;26.30;27.85;100580.06;4978102;28;19930;-90
2022/05/19 09:25:23;;;;;;;5.40;0.95;;;;;;;26.18;27.09;100582.84;5003131;28;20062;-89
2022/05/19 09:28:12;;;;;;;2.88;0.60;;;;;;;26.98;29.57;100588.13;4992039;28;20817;-89
2022/05/19 09:30:57;;;;;;;1.02;0.40;;;;;;;27.17;27.53;100579.41;4980346;28;20092;-89
2022/05/19 09:33:47;;;;;;;3.38;0.52;;;;;;;27.46;26.88;100567.13;4987299;28;20092;-89
2022/05/19 09:36:38;;;;;;;1.30;0.47;;;;;;;26.61;27.77;100574.09;4984987;28;20038;-89
2022/05/19 09:39:23;;;;;;;4.78;0.43;;;;;;;27.24;26.30;100564.50;4990486;28;20046;-89
2022/05/19 09:42:11;;;;;;;0.52;0.43;;;;;;;26.86;28.40;100565.78;4985216;28;20042;-91
2022/05/19 09:44:57;;;;;;;4.05;0.57;;;;;;;27.16;25.35;100572.34;4985983;28;20033;-89
2022/05/19 09:47:45;;;;;;;1.33;0.40;;;;;;;27.22;24.86;100563.75;4985280;28;20038;-89
2022/05/19 09:50:36;;;;;;;1.05;0.43;;;;;;;27.77;25.97;100564.53;4975243;28;20046;-89
2022/05/19 09:53:25;;;;;;;3.30;0.50;;;;;;;27.55;24.51;100559.22;4971875;28;20034;-89
2022/05/19 09:56:17;;;;;;;2.50;0.68;;;;;;;27.44;25.82;100558.31;4972802;28;20051;-90
2022/05/19 09:59:17;;;;;;;9.10;0.75;;;;;;;26.78;25.34;100547.59;4992514;28;20040;-89
2022/05/19 10:02:24;;;;;;;4.03;1.40;;;;;;;27.29;27.12;100556.91;4988103;28;20038;-89
2022/05/19 10:05:22;;;;;;;2.03;0.65;;;;;;;26.72;25.93;100558.84;5002052;28;20567;-89
2022/05/19 10:08:15;;;;;;;1.67;0.38;;;;;;;27.20;26.27;100557.66;4975509;28;20052;-88
2022/05/19 10:11:17;;;;;;;1.38;0.40;;;;;;;28.60;24.01;100541.16;4990593;28;20026;-89
2022/05/19 10:14:10;;;;;;;1.92;0.52;;;;;;;28.31;24.08;100532.97;4985896;28;20054;-89
2022/05/19 10:17:06;;;;;;;3.63;1.08;;;;;;;27.53;24.06;100524.41;4987707;28;20034;-89
2022/05/19 10:20:03;;;;;;;3.88;0.55;;;;;;;27.54;24.94;100527.94;5005088;28;20034;-89
2022/05/19 10:23:08;;;;;;;3.53;0.50;;;;;;;27.75;24.38;100531.47;4983804;28;20038;-89
2022/05/19 10:26:14;;;;;;;4.03;0.60;;;;;;;27.61;24.73;100529.97;4973689;28;20054;-89
2022/05/19 10:32:49;;;;;;;1.63;0.40;;;;;;;28.22;24.22;100521.16;4988507;28;20049;-89
2022/05/19 10:36:11;;;;;;;1.17;0.40;;;;;;;28.81;24.27;100512.31;4997687;28;20042;-89
2022/05/19 10:39:35;;;;;;;1.55;0.40;;;;;;;28.19;25.44;100505.28;4980501;28;20046;-88
2022/05/19 10:42:43;;;;;;;3.08;0.30;;;;;;;28.69;23.75;100509.84;4985793;28;20096;-89
2022/05/19 10:45:39;;;;;;;3.88;0.57;;;;;;;29.14;23.76;100502.16;5000387;28;20038;-89
2022/05/19 10:48:42;;;;;;;3.22;0.50;;;;;;;28.54;24.01;100501.34;4983213;28;20404;-89
2022/05/19 10:51:33;;;;;;;9.30;6.05;;;;;;;29.37;23.86;100491.06;4982018;28;20043;-89
2022/05/19 10:54:52;;;;;;;5.13;2.90;;;;;;;28.99;22.58;100490.03;4997271;28;20045;-89
2022/05/19 10:57:46;;;;;;;3.00;0.93;;;;;;;29.18;21.98;100490.06;4987128;28;20173;-89
2022/05/19 11:00:52;;;;;;;4.60;0.50;;;;;;;28.98;22.13;100474.88;5002028;28;20042;-90
2022/05/19 11:03:57;;;;;;;3.13;0.32;;;;;;;28.62;22.82;100474.53;4989646;28;20080;-89
2022/05/19 11:07:26;;;;;;;1.95;0.60;;;;;;;29.18;22.93;100462.25;5003620;28;20041;-89
2022/05/19 11:10:41;;;;;;;2.05;0.88;;;;;;;28.74;22.74;100459.94;4985313;28;20046;-89
2022/05/19 11:13:58;;;;;;;2.50;0.43;;;;;;;29.00;22.46;100465.69;4988071;28;20038;-89
2022/05/19 11:17:05;;;;;;;1.15;0.52;;;;;;;28.66;22.64;100451.69;4989407;28;20046;-90
2022/05/19 11:20:04;;;;;;;2.53;0.65;;;;;;;29.33;21.74;100445.50;4988718;28;20041;-89
2022/05/19 11:22:53;;;;;;;1.98;0.40;;;;;;;29.19;22.82;100442.41;5017258;28;20474;-90
2022/05/19 11:29:05;;;;;;;2.63;0.60;;;;;;;29.35;22.05;100437.28;4988637;28;20042;-89
2022/05/19 11:32:12;;;;;;;2.47;0.70;;;;;;;29.31;22.20;100431.34;4969764;28;20073;-89
2022/05/19 11:35:07;;;;;;;2.45;0.55;;;;;;;28.45;22.05;100426.72;4981556;28;20035;-89
2022/05/19 11:38:04;;;;;;;1.58;0.57;;;;;;;28.63;21.29;100423.22;4987162;28;20031;-90
2022/05/19 11:41:08;;;;;;;2.90;0.52;;;;;;;28.82;21.43;100416.97;4987872;28;20050;-90
2022/05/19 11:44:25;;;;;;;3.70;0.73;;;;;;;29.35;22.53;100423.81;5000542;28;20085;-89
2022/05/19 11:55:12;;;;;;;1.83;0.47;;;;;;;28.43;21.68;100411.53;4985107;28;20485;-89
2022/05/19 11:56:46;;;;;;;1.23;0.57;;;;;;;28.75;23.26;100406.91;4998283;28;20030;-89
2022/05/19 11:59:31;;;;;;;1.23;0.47;;;;;;;29.18;22.59;100387.59;4986840;28;20042;-90
2022/05/19 12:02:22;;;;;;;1.75;0.43;;;;;;;29.77;21.09;100386.50;4987066;28;20389;-90
2022/05/19 12:05:19;;;;;;;3.15;1.17;;;;;;;29.41;22.94;100393.53;4978154;28;20121;-89
2022/05/19 12:08:48;;;;;;;1.35;0.57;;;;;;;29.41;22.96;100385.41;4990543;28;20060;-90
2022/05/19 12:11:44;;;;;;;3.40;0.80;;;;;;;29.14;21.81;100394.28;4929227;29;20059;-90
2022/05/19 12:14:34;;;;;;;4.80;0.90;;;;;;;28.68;21.32;100374.28;4940523;29;20050;-89
2022/05/19 12:17:28;;;;;;;3.25;0.70;;;;;;;28.32;21.67;100379.31;4986524;28;21006;-89
2022/05/19 12:20:48;;;;;;;4.35;0.95;;;;;;;29.46;21.88;100380.47;4988999;28;20046;-89
2022/05/19 12:23:37;;;;;;;2.13;0.77;;;;;;;28.63;22.09;100371.16;4973782;28;20123;-91
2022/05/19 12:26:28;;;;;;;2.58;0.73;;;;;;;28.15;21.50;100375.47;4984027;28;20059;-88
2022/05/19 12:29:33;;;;;;;2.83;0.85;;;;;;;28.36;22.61;100364.56;4987301;28;20081;-89
2022/05/19 12:32:23;;;;;;;4.20;0.80;;;;;;;28.58;22.10;100352.72;4987036;28;20042;-88
2022/05/19 12:35:12;;;;;;;2.35;0.90;;;;;;;28.65;21.86;100363.78;4992308;28;20045;-89
2022/05/19 12:38:04;;;;;;;4.28;0.82;;;;;;;28.59;21.33;100350.88;4983814;28;20046;-89
2022/05/19 12:40:53;;;;;;;1.67;0.80;;;;;;;29.06;20.84;100357.28;4985236;28;20054;-89
2022/05/19 12:43:46;;;;;;;4.95;0.98;;;;;;;28.02;22.21;100347.09;4987973;28;20453;-88
2022/05/19 12:46:34;;;;;;;4.88;0.88;;;;;;;28.60;22.35;100360.66;4972572;28;20673;-89
2022/05/19 12:49:24;;;;;;;2.17;0.55;;;;;;;28.15;20.62;100355.75;4985398;28;20046;-88
2022/05/19 12:52:18;;;;;;;2.42;0.60;;;;;;;28.08;20.93;100341.13;4988298;28;20740;-88
2022/05/19 12:55:27;;;;;;;2.00;0.60;;;;;;;28.09;21.22;100342.84;5000216;28;20779;-90
2022/05/19 12:58:34;;;;;;;1.55;0.40;;;;;;;28.55;21.39;100344.06;5000922;28;20677;-89
2022/05/19 13:01:44;;;;;;;6.35;0.50;;;;;;;28.00;21.03;100330.22;5004019;28;20046;-89
2022/05/19 13:04:36;;;;;;;1.90;0.95;;;;;;;28.07;20.64;100331.34;4973444;28;20072;-88
2022/05/19 13:07:28;;;;;;;;;;;;;;;28.15;21.00;100334.22;4984538;28;21678;-88
2022/05/19 13:10:26;;;;;;;2.42;0.40;;;;;;;27.86;21.17;100324.25;4969677;28;20304;-89
2022/05/19 13:13:24;;;;;;;1.63;0.55;;;;;;;28.36;19.92;100316.09;4989411;28;20096;-88
2022/05/19 13:16:24;;;;;;;1.95;0.80;;;;;;;27.38;20.62;100315.94;4988878;28;20400;-88
2022/05/19 13:19:20;;;;;;;3.20;0.75;;;;;;;27.94;20.52;100305.53;4986099;28;20476;-89
2022/05/19 13:22:18;;;;;;;4.25;0.70;;;;;;;27.69;20.34;100303.34;4985014;28;20052;-88
2022/05/19 13:25:11;;;;;;;0.80;0.43;;;;;;;27.69;20.09;100309.56;4988125;28;20840;-91
2022/05/19 13:31:29;;;;;;;1.67;0.60;;;;;;;27.61;20.40;100295.94;4983678;28;20088;-88
2022/05/19 13:34:14;;;;;;;1.55;0.43;;;;;;;28.11;21.29;100284.31;5003859;28;20512;-89
2022/05/19 13:37:00;;;;;;;1.25;0.63;;;;;;;27.52;20.80;100291.38;5009163;28;20089;-89
2022/05/19 13:39:44;;;;;;;2.83;0.43;;;;;;;28.07;21.73;100283.75;4985596;28;20049;-88